sensor_id;sensor_type;location;lat;lon;timestamp;temperature;humidity
49242;DHT22;35079;52.704;13.814;2023-11-21T00:02:13;6.80;99.90
49242;DHT22;35079;52.704;13.814;2023-11-21T00:04:39;6.80;99.90
49242;DHT22;35079;52.704;13.814;2023-11-21T00:07:04;7.00;99.90
49242;DHT22;35079;52.704;13.814;2023-11-21T00:09:31;6.90;99.90
49242;DHT22;35079;52.704;13.814;2023-11-21T00:11:57;6.80;99.90
49242;DHT22;35079;52.704;13.814;2023-11-21T00:14:24;6.80;99.90
49242;DHT22;35079;52.704;13.814;2023-11-21T00:16:50;6.80;99.90
49242;DHT22;35079;52.704;13.814;2023-11-21T00:19:16;6.70;99.90
49242;DHT22;35079;52.704;13.814;2023-11-21T00:21:42;6.80;99.90
49242;DHT22;35079;52.704;13.814;2023-11-21T00:24:09;6.80;99.90
49242;DHT22;35079;52.704;13.814;2023-11-21T00:26:35;6.70;99.90
49242;DHT22;35079;52.704;13.814;2023-11-21T00:29:03;6.70;99.90
49242;DHT22;35079;52.704;13.814;2023-11-21T00:31:28;6.70;99.90
49242;DHT22;35079;52.704;13.814;2023-11-21T00:33:56;6.50;99.90
49242;DHT22;35079;52.704;13.814;2023-11-21T00:36:21;6.60;99.90
49242;DHT22;35079;52.704;13.814;2023-11-21T00:38:47;6.50;99.90
49242;DHT22;35079;52.704;13.814;2023-11-21T00:41:14;6.40;99.90
49242;DHT22;35079;52.704;13.814;2023-11-21T00:43:39;6.40;99.90
49242;DHT22;35079;52.704;13.814;2023-11-21T00:46:05;6.30;99.90
49242;DHT22;35079;52.704;13.814;2023-11-21T00:48:34;6.40;99.90
49242;DHT22;35079;52.704;13.814;2023-11-21T00:50:59;6.30;99.90
49242;DHT22;35079;52.704;13.814;2023-11-21T00:53:25;6.30;99.90
49242;DHT22;35079;52.704;13.814;2023-11-21T00:55:51;6.20;99.90
49242;DHT22;35079;52.704;13.814;2023-11-21T00:58:23;6.20;99.90
49242;DHT22;35079;52.704;13.814;2023-11-21T01:00:48;6.20;99.90
49242;DHT22;35079;52.704;13.814;2023-11-21T01:03:17;6.10;99.90
49242;DHT22;35079;52.704;13.814;2023-11-21T01:05:43;6.00;99.90
49242;DHT22;35079;52.704;13.814;2023-11-21T01:08:08;6.00;99.90
49242;DHT22;35079;52.704;13.814;2023-11-21T01:10:34;6.20;99.90
49242;DHT22;35079;52.704;13.814;2023-11-21T01:13:00;6.10;99.90
49242;DHT22;35079;52.704;13.814;2023-11-21T01:15:26;6.20;99.90
49242;DHT22;35079;52.704;13.814;2023-11-21T01:17:52;6.10;99.90
49242;DHT22;35079;52.704;13.814;2023-11-21T01:20:17;6.00;99.90
49242;DHT22;35079;52.704;13.814;2023-11-21T01:22:43;5.90;99.90
49242;DHT22;35079;52.704;13.814;2023-11-21T01:25:09;5.90;99.90
49242;DHT22;35079;52.704;13.814;2023-11-21T01:27:36;5.90;99.90
49242;DHT22;35079;52.704;13.814;2023-11-21T01:30:05;6.00;99.90
49242;DHT22;35079;52.704;13.814;2023-11-21T01:32:33;6.00;99.90
49242;DHT22;35079;52.704;13.814;2023-11-21T01:34:59;6.10;99.90
49242;DHT22;35079;52.704;13.814;2023-11-21T01:37:25;5.90;99.90
49242;DHT22;35079;52.704;13.814;2023-11-21T01:39:56;5.90;99.90
49242;DHT22;35079;52.704;13.814;2023-11-21T01:42:22;5.90;99.90
49242;DHT22;35079;52.704;13.814;2023-11-21T01:44:47;6.00;99.90
49242;DHT22;35079;52.704;13.814;2023-11-21T01:47:14;6.00;99.90
49242;DHT22;35079;52.704;13.814;2023-11-21T01:49:43;5.80;99.90
49242;DHT22;35079;52.704;13.814;2023-11-21T01:52:11;6.00;99.90
49242;DHT22;35079;52.704;13.814;2023-11-21T01:54:37;5.80;99.90
49242;DHT22;35079;52.704;13.814;2023-11-21T01:57:04;5.70;99.90
49242;DHT22;35079;52.704;13.814;2023-11-21T01:59:36;5.80;99.90
49242;DHT22;35079;52.704;13.814;2023-11-21T02:02:06;5.90;99.90
49242;DHT22;35079;52.704;13.814;2023-11-21T02:04:35;5.80;99.90
49242;DHT22;35079;52.704;13.814;2023-11-21T02:07:02;5.80;99.90
49242;DHT22;35079;52.704;13.814;2023-11-21T02:09:30;5.70;99.90
49242;DHT22;35079;52.704;13.814;2023-11-21T02:11:57;5.70;99.90
49242;DHT22;35079;52.704;13.814;2023-11-21T02:14:27;5.90;99.90
49242;DHT22;35079;52.704;13.814;2023-11-21T02:16:54;5.80;99.90
49242;DHT22;35079;52.704;13.814;2023-11-21T02:19:22;5.80;99.90
49242;DHT22;35079;52.704;13.814;2023-11-21T02:21:51;5.60;99.90
49242;DHT22;35079;52.704;13.814;2023-11-21T02:24:21;5.60;99.90
49242;DHT22;35079;52.704;13.814;2023-11-21T02:26:48;5.50;99.90
49242;DHT22;35079;52.704;13.814;2023-11-21T02:29:14;5.50;99.90
49242;DHT22;35079;52.704;13.814;2023-11-21T02:31:42;5.40;99.90
49242;DHT22;35079;52.704;13.814;2023-11-21T02:34:14;5.40;99.90
49242;DHT22;35079;52.704;13.814;2023-11-21T02:36:40;5.50;99.90
49242;DHT22;35079;52.704;13.814;2023-11-21T02:39:05;5.40;99.90
49242;DHT22;35079;52.704;13.814;2023-11-21T02:41:32;5.50;99.90
49242;DHT22;35079;52.704;13.814;2023-11-21T02:44:00;5.50;99.90
49242;DHT22;35079;52.704;13.814;2023-11-21T02:46:26;5.50;99.90
49242;DHT22;35079;52.704;13.814;2023-11-21T02:48:51;5.50;99.90
49242;DHT22;35079;52.704;13.814;2023-11-21T02:51:19;5.40;99.90
49242;DHT22;35079;52.704;13.814;2023-11-21T02:53:45;5.40;99.90
49242;DHT22;35079;52.704;13.814;2023-11-21T02:56:12;5.40;99.90
49242;DHT22;35079;52.704;13.814;2023-11-21T02:58:38;5.40;99.90
49242;DHT22;35079;52.704;13.814;2023-11-21T03:01:04;5.50;99.90
49242;DHT22;35079;52.704;13.814;2023-11-21T03:03:30;5.50;99.90
49242;DHT22;35079;52.704;13.814;2023-11-21T03:05:56;5.60;99.90
49242;DHT22;35079;52.704;13.814;2023-11-21T03:08:22;5.50;99.90
49242;DHT22;35079;52.704;13.814;2023-11-21T03:10:47;5.40;99.90
49242;DHT22;35079;52.704;13.814;2023-11-21T03:13:13;5.30;99.90
49242;DHT22;35079;52.704;13.814;2023-11-21T03:15:38;5.20;99.90
49242;DHT22;35079;52.704;13.814;2023-11-21T03:18:04;5.20;99.90
49242;DHT22;35079;52.704;13.814;2023-11-21T03:20:30;5.20;99.90
49242;DHT22;35079;52.704;13.814;2023-11-21T03:22:56;5.20;99.90
49242;DHT22;35079;52.704;13.814;2023-11-21T03:25:21;5.10;99.90
49242;DHT22;35079;52.704;13.814;2023-11-21T03:27:49;5.00;99.90
49242;DHT22;35079;52.704;13.814;2023-11-21T03:30:15;5.00;99.90
49242;DHT22;35079;52.704;13.814;2023-11-21T03:32:40;5.20;99.90
49242;DHT22;35079;52.704;13.814;2023-11-21T03:35:06;5.00;99.90
49242;DHT22;35079;52.704;13.814;2023-11-21T03:37:32;5.10;99.90
49242;DHT22;35079;52.704;13.814;2023-11-21T03:39:58;5.10;99.90
49242;DHT22;35079;52.704;13.814;2023-11-21T03:42:23;5.20;99.90
49242;DHT22;35079;52.704;13.814;2023-11-21T03:44:52;5.10;99.90
49242;DHT22;35079;52.704;13.814;2023-11-21T03:47:18;5.10;99.90
49242;DHT22;35079;52.704;13.814;2023-11-21T03:49:44;5.00;99.90
49242;DHT22;35079;52.704;13.814;2023-11-21T03:52:11;4.90;99.90
49242;DHT22;35079;52.704;13.814;2023-11-21T03:54:37;4.90;99.90
49242;DHT22;35079;52.704;13.814;2023-11-21T03:57:03;4.90;99.90
49242;DHT22;35079;52.704;13.814;2023-11-21T03:59:28;4.90;99.90
49242;DHT22;35079;52.704;13.814;2023-11-21T04:01:56;4.90;99.90
49242;DHT22;35079;52.704;13.814;2023-11-21T04:04:22;4.80;99.90
49242;DHT22;35079;52.704;13.814;2023-11-21T04:06:48;4.90;99.90
49242;DHT22;35079;52.704;13.814;2023-11-21T04:09:13;4.90;99.90
49242;DHT22;35079;52.704;13.814;2023-11-21T04:11:39;4.90;99.90
49242;DHT22;35079;52.704;13.814;2023-11-21T04:14:04;4.80;99.90
49242;DHT22;35079;52.704;13.814;2023-11-21T04:16:30;4.80;99.90
49242;DHT22;35079;52.704;13.814;2023-11-21T04:18:56;4.80;99.90
49242;DHT22;35079;52.704;13.814;2023-11-21T04:21:22;4.80;99.90
49242;DHT22;35079;52.704;13.814;2023-11-21T04:23:49;4.80;99.90
49242;DHT22;35079;52.704;13.814;2023-11-21T04:26:15;4.80;99.90
49242;DHT22;35079;52.704;13.814;2023-11-21T04:28:40;4.80;99.90
49242;DHT22;35079;52.704;13.814;2023-11-21T04:31:06;4.70;99.90
49242;DHT22;35079;52.704;13.814;2023-11-21T04:33:32;4.70;99.90
49242;DHT22;35079;52.704;13.814;2023-11-21T04:35:58;4.70;99.90
49242;DHT22;35079;52.704;13.814;2023-11-21T04:38:23;4.70;99.90
49242;DHT22;35079;52.704;13.814;2023-11-21T04:40:49;4.80;99.90
49242;DHT22;35079;52.704;13.814;2023-11-21T04:43:15;4.70;99.90
49242;DHT22;35079;52.704;13.814;2023-11-21T04:45:41;4.70;99.90
49242;DHT22;35079;52.704;13.814;2023-11-21T04:48:07;4.80;99.90
49242;DHT22;35079;52.704;13.814;2023-11-21T04:50:34;4.90;99.90
49242;DHT22;35079;52.704;13.814;2023-11-21T04:52:59;4.90;99.90
49242;DHT22;35079;52.704;13.814;2023-11-21T04:55:25;4.80;99.90
49242;DHT22;35079;52.704;13.814;2023-11-21T04:57:53;4.80;99.90
49242;DHT22;35079;52.704;13.814;2023-11-21T05:00:19;4.90;99.90
49242;DHT22;35079;52.704;13.814;2023-11-21T05:02:46;5.10;99.90
49242;DHT22;35079;52.704;13.814;2023-11-21T05:05:12;4.80;99.90
49242;DHT22;35079;52.704;13.814;2023-11-21T05:07:39;4.80;99.90
49242;DHT22;35079;52.704;13.814;2023-11-21T05:10:05;4.90;99.90
49242;DHT22;35079;52.704;13.814;2023-11-21T05:12:37;4.90;99.90
49242;DHT22;35079;52.704;13.814;2023-11-21T05:15:07;4.80;99.90
49242;DHT22;35079;52.704;13.814;2023-11-21T05:17:37;4.90;99.90
49242;DHT22;35079;52.704;13.814;2023-11-21T05:20:04;4.80;99.90
49242;DHT22;35079;52.704;13.814;2023-11-21T05:22:34;4.80;99.90
49242;DHT22;35079;52.704;13.814;2023-11-21T05:25:00;4.70;99.90
49242;DHT22;35079;52.704;13.814;2023-11-21T05:27:25;4.70;99.90
49242;DHT22;35079;52.704;13.814;2023-11-21T05:29:51;4.60;99.90
49242;DHT22;35079;52.704;13.814;2023-11-21T05:32:16;4.60;99.90
49242;DHT22;35079;52.704;13.814;2023-11-21T05:34:43;4.60;99.90
49242;DHT22;35079;52.704;13.814;2023-11-21T05:37:08;4.50;99.90
49242;DHT22;35079;52.704;13.814;2023-11-21T05:39:34;4.50;99.90
49242;DHT22;35079;52.704;13.814;2023-11-21T05:41:59;4.60;99.90
49242;DHT22;35079;52.704;13.814;2023-11-21T05:44:25;4.40;99.90
49242;DHT22;35079;52.704;13.814;2023-11-21T05:46:51;4.40;99.90
49242;DHT22;35079;52.704;13.814;2023-11-21T05:49:16;4.40;99.90
49242;DHT22;35079;52.704;13.814;2023-11-21T05:51:42;4.40;99.90
49242;DHT22;35079;52.704;13.814;2023-11-21T05:54:07;4.50;99.90
49242;DHT22;35079;52.704;13.814;2023-11-21T05:56:33;4.50;99.90
49242;DHT22;35079;52.704;13.814;2023-11-21T05:58:59;4.40;99.90
49242;DHT22;35079;52.704;13.814;2023-11-21T06:01:25;4.60;99.90
49242;DHT22;35079;52.704;13.814;2023-11-21T06:03:53;4.50;99.90
49242;DHT22;35079;52.704;13.814;2023-11-21T06:06:19;4.60;99.90
49242;DHT22;35079;52.704;13.814;2023-11-21T06:08:45;4.50;99.90
49242;DHT22;35079;52.704;13.814;2023-11-21T06:11:11;4.50;99.90
49242;DHT22;35079;52.704;13.814;2023-11-21T06:13:37;4.50;99.90
49242;DHT22;35079;52.704;13.814;2023-11-21T06:16:03;4.60;99.90
49242;DHT22;35079;52.704;13.814;2023-11-21T06:18:30;4.50;99.90
49242;DHT22;35079;52.704;13.814;2023-11-21T06:20:55;4.50;99.90
49242;DHT22;35079;52.704;13.814;2023-11-21T06:23:21;4.40;99.90
49242;DHT22;35079;52.704;13.814;2023-11-21T06:25:46;4.50;99.90
49242;DHT22;35079;52.704;13.814;2023-11-21T06:28:12;4.40;99.90
49242;DHT22;35079;52.704;13.814;2023-11-21T06:30:38;4.60;99.90
49242;DHT22;35079;52.704;13.814;2023-11-21T06:33:03;4.60;99.90
49242;DHT22;35079;52.704;13.814;2023-11-21T06:35:29;4.40;99.90
49242;DHT22;35079;52.704;13.814;2023-11-21T06:37:58;4.50;99.90
49242;DHT22;35079;52.704;13.814;2023-11-21T06:40:23;4.40;99.90
49242;DHT22;35079;52.704;13.814;2023-11-21T06:42:50;4.50;99.90
49242;DHT22;35079;52.704;13.814;2023-11-21T06:45:16;4.40;99.90
49242;DHT22;35079;52.704;13.814;2023-11-21T06:47:42;4.40;99.90
49242;DHT22;35079;52.704;13.814;2023-11-21T06:50:08;4.40;99.90
49242;DHT22;35079;52.704;13.814;2023-11-21T06:52:34;4.40;99.90
49242;DHT22;35079;52.704;13.814;2023-11-21T06:54:59;4.40;99.90
49242;DHT22;35079;52.704;13.814;2023-11-21T06:57:25;4.40;99.90
49242;DHT22;35079;52.704;13.814;2023-11-21T06:59:51;4.60;99.90
49242;DHT22;35079;52.704;13.814;2023-11-21T07:02:16;4.70;99.90
49242;DHT22;35079;52.704;13.814;2023-11-21T07:04:47;4.40;99.90
49242;DHT22;35079;52.704;13.814;2023-11-21T07:07:12;4.40;99.90
49242;DHT22;35079;52.704;13.814;2023-11-21T07:09:38;4.60;99.90
49242;DHT22;35079;52.704;13.814;2023-11-21T07:12:05;4.40;99.90
49242;DHT22;35079;52.704;13.814;2023-11-21T07:14:33;4.40;99.90
49242;DHT22;35079;52.704;13.814;2023-11-21T07:16:59;4.30;99.90
49242;DHT22;35079;52.704;13.814;2023-11-21T07:19:24;4.40;99.90
49242;DHT22;35079;52.704;13.814;2023-11-21T07:21:50;4.40;99.90
49242;DHT22;35079;52.704;13.814;2023-11-21T07:24:16;4.50;99.90
49242;DHT22;35079;52.704;13.814;2023-11-21T07:26:42;4.30;99.90
49242;DHT22;35079;52.704;13.814;2023-11-21T07:29:08;4.40;99.90
49242;DHT22;35079;52.704;13.814;2023-11-21T07:31:34;4.40;99.90
49242;DHT22;35079;52.704;13.814;2023-11-21T07:34:00;4.40;99.90
49242;DHT22;35079;52.704;13.814;2023-11-21T07:36:26;4.40;99.90
49242;DHT22;35079;52.704;13.814;2023-11-21T07:38:52;4.40;99.90
49242;DHT22;35079;52.704;13.814;2023-11-21T07:41:18;4.30;99.90
49242;DHT22;35079;52.704;13.814;2023-11-21T07:43:44;4.30;99.90
49242;DHT22;35079;52.704;13.814;2023-11-21T07:46:11;4.30;99.90
49242;DHT22;35079;52.704;13.814;2023-11-21T07:48:40;4.30;99.90
49242;DHT22;35079;52.704;13.814;2023-11-21T07:51:07;4.50;99.90
49242;DHT22;35079;52.704;13.814;2023-11-21T07:53:33;4.40;99.90
49242;DHT22;35079;52.704;13.814;2023-11-21T07:56:07;4.40;99.90
49242;DHT22;35079;52.704;13.814;2023-11-21T07:58:36;4.40;99.90
49242;DHT22;35079;52.704;13.814;2023-11-21T08:01:02;4.40;99.90
49242;DHT22;35079;52.704;13.814;2023-11-21T08:03:28;4.60;99.90
49242;DHT22;35079;52.704;13.814;2023-11-21T08:05:57;4.40;99.90
49242;DHT22;35079;52.704;13.814;2023-11-21T08:08:24;4.40;99.90
49242;DHT22;35079;52.704;13.814;2023-11-21T08:10:50;4.60;99.90
49242;DHT22;35079;52.704;13.814;2023-11-21T08:13:25;4.50;99.90
49242;DHT22;35079;52.704;13.814;2023-11-21T08:15:54;4.40;99.90
49242;DHT22;35079;52.704;13.814;2023-11-21T08:18:20;4.40;99.90
49242;DHT22;35079;52.704;13.814;2023-11-21T08:20:45;4.40;99.90
49242;DHT22;35079;52.704;13.814;2023-11-21T08:23:17;4.50;99.90
49242;DHT22;35079;52.704;13.814;2023-11-21T08:25:43;4.40;99.90
49242;DHT22;35079;52.704;13.814;2023-11-21T08:28:09;4.20;99.90
49242;DHT22;35079;52.704;13.814;2023-11-21T08:30:35;4.20;99.90
49242;DHT22;35079;52.704;13.814;2023-11-21T08:33:01;4.40;99.90
49242;DHT22;35079;52.704;13.814;2023-11-21T08:35:28;4.30;99.90
49242;DHT22;35079;52.704;13.814;2023-11-21T08:37:54;4.20;99.90
49242;DHT22;35079;52.704;13.814;2023-11-21T08:40:20;4.30;99.90
49242;DHT22;35079;52.704;13.814;2023-11-21T08:42:46;4.30;99.90
49242;DHT22;35079;52.704;13.814;2023-11-21T08:45:16;4.30;99.90
49242;DHT22;35079;52.704;13.814;2023-11-21T08:47:43;4.30;99.90
49242;DHT22;35079;52.704;13.814;2023-11-21T08:50:10;4.40;99.90
49242;DHT22;35079;52.704;13.814;2023-11-21T08:52:37;4.30;99.90
49242;DHT22;35079;52.704;13.814;2023-11-21T08:55:07;4.40;99.90
49242;DHT22;35079;52.704;13.814;2023-11-21T08:57:38;4.30;99.90
49242;DHT22;35079;52.704;13.814;2023-11-21T09:00:07;4.30;99.90
49242;DHT22;35079;52.704;13.814;2023-11-21T09:02:50;4.30;99.90
49242;DHT22;35079;52.704;13.814;2023-11-21T09:05:17;4.30;99.90
49242;DHT22;35079;52.704;13.814;2023-11-21T09:07:43;4.20;99.90
49242;DHT22;35079;52.704;13.814;2023-11-21T09:10:09;4.20;99.90
49242;DHT22;35079;52.704;13.814;2023-11-21T09:12:35;4.20;99.90
49242;DHT22;35079;52.704;13.814;2023-11-21T09:15:04;4.30;99.90
49242;DHT22;35079;52.704;13.814;2023-11-21T09:17:31;4.20;99.90
49242;DHT22;35079;52.704;13.814;2023-11-21T09:19:57;4.30;99.90
49242;DHT22;35079;52.704;13.814;2023-11-21T09:22:22;4.30;99.90
49242;DHT22;35079;52.704;13.814;2023-11-21T09:24:50;4.30;99.90
49242;DHT22;35079;52.704;13.814;2023-11-21T09:27:16;4.40;99.90
49242;DHT22;35079;52.704;13.814;2023-11-21T09:29:43;4.40;99.90
49242;DHT22;35079;52.704;13.814;2023-11-21T09:32:08;4.50;99.90
49242;DHT22;35079;52.704;13.814;2023-11-21T09:34:38;4.50;99.90
49242;DHT22;35079;52.704;13.814;2023-11-21T09:37:07;4.50;99.90
49242;DHT22;35079;52.704;13.814;2023-11-21T09:39:33;4.50;99.90
49242;DHT22;35079;52.704;13.814;2023-11-21T09:47:27;4.60;99.90
49242;DHT22;35079;52.704;13.814;2023-11-21T09:49:54;4.50;99.90
49242;DHT22;35079;52.704;13.814;2023-11-21T09:52:26;4.50;99.90
49242;DHT22;35079;52.704;13.814;2023-11-21T09:54:53;4.60;99.90
49242;DHT22;35079;52.704;13.814;2023-11-21T09:57:23;4.40;99.90
49242;DHT22;35079;52.704;13.814;2023-11-21T09:59:53;4.40;99.90
49242;DHT22;35079;52.704;13.814;2023-11-21T10:02:28;4.40;99.90
49242;DHT22;35079;52.704;13.814;2023-11-21T10:04:56;4.40;99.90
49242;DHT22;35079;52.704;13.814;2023-11-21T10:07:22;4.40;99.90
49242;DHT22;35079;52.704;13.814;2023-11-21T10:09:48;4.40;99.90
49242;DHT22;35079;52.704;13.814;2023-11-21T10:12:16;4.40;99.90
49242;DHT22;35079;52.704;13.814;2023-11-21T10:14:42;4.40;99.90
49242;DHT22;35079;52.704;13.814;2023-11-21T10:17:11;4.60;99.90
49242;DHT22;35079;52.704;13.814;2023-11-21T10:19:39;4.50;99.90
49242;DHT22;35079;52.704;13.814;2023-11-21T10:22:05;4.50;99.90
49242;DHT22;35079;52.704;13.814;2023-11-21T10:24:32;4.60;99.90
49242;DHT22;35079;52.704;13.814;2023-11-21T10:26:58;4.50;99.90
49242;DHT22;35079;52.704;13.814;2023-11-21T10:29:25;4.60;99.90
49242;DHT22;35079;52.704;13.814;2023-11-21T10:31:52;4.50;99.90
49242;DHT22;35079;52.704;13.814;2023-11-21T10:34:20;4.50;99.90
49242;DHT22;35079;52.704;13.814;2023-11-21T10:36:47;4.50;99.90
49242;DHT22;35079;52.704;13.814;2023-11-21T10:39:16;4.40;99.90
49242;DHT22;35079;52.704;13.814;2023-11-21T10:41:47;4.50;99.90
49242;DHT22;35079;52.704;13.814;2023-11-21T10:44:17;4.50;99.90
49242;DHT22;35079;52.704;13.814;2023-11-21T10:46:48;4.50;99.90
49242;DHT22;35079;52.704;13.814;2023-11-21T10:49:17;4.40;99.90
49242;DHT22;35079;52.704;13.814;2023-11-21T10:51:44;4.50;99.90
49242;DHT22;35079;52.704;13.814;2023-11-21T10:54:10;4.50;99.90
49242;DHT22;35079;52.704;13.814;2023-11-21T10:56:38;4.70;99.90
49242;DHT22;35079;52.704;13.814;2023-11-21T10:59:09;4.50;99.90
49242;DHT22;35079;52.704;13.814;2023-11-21T11:01:36;4.50;99.90
49242;DHT22;35079;52.704;13.814;2023-11-21T11:04:04;4.50;99.90
49242;DHT22;35079;52.704;13.814;2023-11-21T11:06:32;4.40;99.90
49242;DHT22;35079;52.704;13.814;2023-11-21T11:08:59;4.50;99.90
49242;DHT22;35079;52.704;13.814;2023-11-21T11:11:25;4.40;99.90
49242;DHT22;35079;52.704;13.814;2023-11-21T11:13:51;4.40;99.90
49242;DHT22;35079;52.704;13.814;2023-11-21T11:16:18;4.40;99.90
49242;DHT22;35079;52.704;13.814;2023-11-21T11:18:45;4.40;99.90
49242;DHT22;35079;52.704;13.814;2023-11-21T11:27:01;4.50;99.90
49242;DHT22;35079;52.704;13.814;2023-11-21T11:29:41;4.50;99.90
49242;DHT22;35079;52.704;13.814;2023-11-21T11:34:48;4.30;99.90
49242;DHT22;35079;52.704;13.814;2023-11-21T11:37:16;4.30;99.90
49242;DHT22;35079;52.704;13.814;2023-11-21T11:39:42;4.30;99.90
49242;DHT22;35079;52.704;13.814;2023-11-21T11:42:15;4.40;99.90
49242;DHT22;35079;52.704;13.814;2023-11-21T11:47:17;4.10;99.90
49242;DHT22;35079;52.704;13.814;2023-11-21T11:50:04;4.20;99.90
49242;DHT22;35079;52.704;13.814;2023-11-21T11:55:00;4.10;99.90
49242;DHT22;35079;52.704;13.814;2023-11-21T11:57:26;4.10;99.90
49242;DHT22;35079;52.704;13.814;2023-11-21T12:00:11;4.00;99.90
49242;DHT22;35079;52.704;13.814;2023-11-21T12:02:38;4.00;99.90
49242;DHT22;35079;52.704;13.814;2023-11-21T12:05:13;4.00;99.90
49242;DHT22;35079;52.704;13.814;2023-11-21T12:07:46;4.00;99.90
49242;DHT22;35079;52.704;13.814;2023-11-21T12:10:14;4.20;99.90
49242;DHT22;35079;52.704;13.814;2023-11-21T12:12:48;4.10;99.90
49242;DHT22;35079;52.704;13.814;2023-11-21T12:15:14;4.00;99.90
49242;DHT22;35079;52.704;13.814;2023-11-21T12:17:44;4.00;99.90
49242;DHT22;35079;52.704;13.814;2023-11-21T12:20:11;4.00;99.90
49242;DHT22;35079;52.704;13.814;2023-11-21T12:25:09;3.90;99.90
49242;DHT22;35079;52.704;13.814;2023-11-21T12:27:35;3.80;99.90
49242;DHT22;35079;52.704;13.814;2023-11-21T12:30:00;3.80;99.90
49242;DHT22;35079;52.704;13.814;2023-11-21T12:32:26;3.80;99.90
49242;DHT22;35079;52.704;13.814;2023-11-21T12:34:52;3.90;99.90
49242;DHT22;35079;52.704;13.814;2023-11-21T12:37:18;3.70;99.90
49242;DHT22;35079;52.704;13.814;2023-11-21T12:39:43;3.70;99.90
49242;DHT22;35079;52.704;13.814;2023-11-21T12:42:09;3.70;99.90
49242;DHT22;35079;52.704;13.814;2023-11-21T12:44:35;3.80;99.90
49242;DHT22;35079;52.704;13.814;2023-11-21T12:47:03;3.60;99.90
49242;DHT22;35079;52.704;13.814;2023-11-21T12:49:28;3.70;99.90
49242;DHT22;35079;52.704;13.814;2023-11-21T12:51:54;3.70;99.90
49242;DHT22;35079;52.704;13.814;2023-11-21T12:54:20;3.70;99.90
49242;DHT22;35079;52.704;13.814;2023-11-21T12:56:46;3.60;99.90
49242;DHT22;35079;52.704;13.814;2023-11-21T12:59:14;3.80;99.90
49242;DHT22;35079;52.704;13.814;2023-11-21T13:01:44;3.60;99.90
49242;DHT22;35079;52.704;13.814;2023-11-21T13:04:11;3.60;99.90
49242;DHT22;35079;52.704;13.814;2023-11-21T13:06:37;3.60;99.90
49242;DHT22;35079;52.704;13.814;2023-11-21T13:09:07;3.70;99.90
49242;DHT22;35079;52.704;13.814;2023-11-21T13:11:37;3.60;99.90
49242;DHT22;35079;52.704;13.814;2023-11-21T13:14:06;3.50;99.90
49242;DHT22;35079;52.704;13.814;2023-11-21T13:16:34;3.40;99.90
49242;DHT22;35079;52.704;13.814;2023-11-21T13:19:00;3.50;99.90
49242;DHT22;35079;52.704;13.814;2023-11-21T13:21:25;3.60;99.90
49242;DHT22;35079;52.704;13.814;2023-11-21T13:23:51;3.40;99.90
49242;DHT22;35079;52.704;13.814;2023-11-21T13:26:18;3.40;99.90
49242;DHT22;35079;52.704;13.814;2023-11-21T13:28:46;3.40;99.90
49242;DHT22;35079;52.704;13.814;2023-11-21T13:31:12;3.30;99.90
49242;DHT22;35079;52.704;13.814;2023-11-21T13:33:47;3.30;99.90
49242;DHT22;35079;52.704;13.814;2023-11-21T13:36:23;3.30;99.90
49242;DHT22;35079;52.704;13.814;2023-11-21T13:38:51;3.20;99.90
49242;DHT22;35079;52.704;13.814;2023-11-21T13:41:18;3.20;99.90
49242;DHT22;35079;52.704;13.814;2023-11-21T13:43:44;3.20;99.90
49242;DHT22;35079;52.704;13.814;2023-11-21T13:46:19;3.20;99.90
49242;DHT22;35079;52.704;13.814;2023-11-21T13:48:48;3.30;99.90
49242;DHT22;35079;52.704;13.814;2023-11-21T13:51:21;3.40;99.90
49242;DHT22;35079;52.704;13.814;2023-11-21T13:53:56;3.20;99.90
49242;DHT22;35079;52.704;13.814;2023-11-21T13:56:21;3.20;99.90
49242;DHT22;35079;52.704;13.814;2023-11-21T13:58:51;3.10;99.90
49242;DHT22;35079;52.704;13.814;2023-11-21T14:01:21;3.10;99.90
49242;DHT22;35079;52.704;13.814;2023-11-21T14:03:57;3.10;99.90
49242;DHT22;35079;52.704;13.814;2023-11-21T14:06:28;3.00;99.90
49242;DHT22;35079;52.704;13.814;2023-11-21T14:09:00;2.90;99.90
49242;DHT22;35079;52.704;13.814;2023-11-21T14:11:30;3.20;99.90
49242;DHT22;35079;52.704;13.814;2023-11-21T14:13:56;2.90;99.90
49242;DHT22;35079;52.704;13.814;2023-11-21T14:16:24;2.90;99.90
49242;DHT22;35079;52.704;13.814;2023-11-21T14:18:50;2.90;99.90
49242;DHT22;35079;52.704;13.814;2023-11-21T14:21:22;2.90;99.90
49242;DHT22;35079;52.704;13.814;2023-11-21T14:23:48;2.80;99.90
49242;DHT22;35079;52.704;13.814;2023-11-21T14:26:14;2.80;99.90
49242;DHT22;35079;52.704;13.814;2023-11-21T14:28:41;2.80;99.90
49242;DHT22;35079;52.704;13.814;2023-11-21T14:31:07;2.80;99.90
49242;DHT22;35079;52.704;13.814;2023-11-21T14:33:33;2.70;99.90
49242;DHT22;35079;52.704;13.814;2023-11-21T14:35:59;2.90;99.90
49242;DHT22;35079;52.704;13.814;2023-11-21T14:38:24;2.80;99.90
49242;DHT22;35079;52.704;13.814;2023-11-21T14:40:50;2.70;99.90
49242;DHT22;35079;52.704;13.814;2023-11-21T14:43:15;2.70;99.90
49242;DHT22;35079;52.704;13.814;2023-11-21T14:45:42;2.70;99.90
49242;DHT22;35079;52.704;13.814;2023-11-21T14:48:08;2.70;99.90
49242;DHT22;35079;52.704;13.814;2023-11-21T14:50:41;2.70;99.90
49242;DHT22;35079;52.704;13.814;2023-11-21T14:53:15;2.70;99.90
49242;DHT22;35079;52.704;13.814;2023-11-21T14:55:41;2.60;99.90
49242;DHT22;35079;52.704;13.814;2023-11-21T14:58:18;2.70;99.90
49242;DHT22;35079;52.704;13.814;2023-11-21T15:00:53;2.60;99.90
49242;DHT22;35079;52.704;13.814;2023-11-21T15:03:24;2.50;99.90
49242;DHT22;35079;52.704;13.814;2023-11-21T15:05:56;2.70;99.90
49242;DHT22;35079;52.704;13.814;2023-11-21T15:08:22;2.60;99.90
49242;DHT22;35079;52.704;13.814;2023-11-21T15:10:55;2.50;99.90
49242;DHT22;35079;52.704;13.814;2023-11-21T15:13:21;2.50;99.90
49242;DHT22;35079;52.704;13.814;2023-11-21T15:15:48;2.40;99.90
49242;DHT22;35079;52.704;13.814;2023-11-21T15:18:14;2.50;99.90
49242;DHT22;35079;52.704;13.814;2023-11-21T15:20:40;2.70;99.90
49242;DHT22;35079;52.704;13.814;2023-11-21T15:23:06;2.50;99.90
49242;DHT22;35079;52.704;13.814;2023-11-21T15:25:32;2.40;99.90
49242;DHT22;35079;52.704;13.814;2023-11-21T15:27:59;2.50;99.90
49242;DHT22;35079;52.704;13.814;2023-11-21T15:30:25;2.50;99.90
49242;DHT22;35079;52.704;13.814;2023-11-21T15:32:51;2.40;99.90
49242;DHT22;35079;52.704;13.814;2023-11-21T15:35:20;2.50;99.90
49242;DHT22;35079;52.704;13.814;2023-11-21T15:37:46;2.40;99.90
49242;DHT22;35079;52.704;13.814;2023-11-21T15:40:12;2.40;99.90
49242;DHT22;35079;52.704;13.814;2023-11-21T15:42:40;2.60;99.90
49242;DHT22;35079;52.704;13.814;2023-11-21T15:45:06;2.40;99.90
49242;DHT22;35079;52.704;13.814;2023-11-21T15:47:33;2.50;99.90
49242;DHT22;35079;52.704;13.814;2023-11-21T15:49:59;2.50;99.90
49242;DHT22;35079;52.704;13.814;2023-11-21T15:52:25;2.70;99.90